Turbat Weather



Turbat's Current Weather

Temprature 23.199o scattered clouds

scattered clouds

Rain: 0 %

Min Temprature23.199o
Max Temprature23.199o
Humidity34
Wind Speed3.31 m/h
Sun Rise07:16:46
Sun Set18:45:52
Current Time: 23-Feb-2019 15:42:38
Lat/Lon: 26, 63.05




Turbat's Geo Location




Turbat's Weather Forecast

Time Overall Temp Min Temp Max Temp Humidity Wind Speed Rain
23-Feb-2019 (Sat)
17:00:00 scattered clouds 23.590 23.199 23.590 34 3.31 m/h 0 %
20:00:00 clear sky 17.670 17.384 17.670 66 2.32 m/h 0 %
23:00:00 few clouds 14.180 13.990 14.180 91 1.77 m/h 0 %
24-Feb-2019 (Sun)
02:00:00 few clouds 11.980 11.885 11.980 90 2.06 m/h 0 %
05:00:00 broken clouds 11.242 11.242 11.242 90 1.16 m/h 0 %
08:00:00 clear sky 10.703 10.703 10.703 86 1.21 m/h 0 %
11:00:00 clear sky 22.349 22.349 22.349 55 1.81 m/h 0 %
14:00:00 clear sky 28.106 28.106 28.106 28 1.77 m/h 0 %
17:00:00 clear sky 28.696 28.696 28.696 23 3.6 m/h 0 %
20:00:00 clear sky 21.943 21.943 21.943 35 3.01 m/h 0 %
23:00:00 clear sky 18.261 18.261 18.261 65 3.91 m/h 0 %
25-Feb-2019 (Mon)
02:00:00 clear sky 14.530 14.530 14.530 86 2.22 m/h 0 %
05:00:00 clear sky 11.202 11.202 11.202 82 0.76 m/h 0 %
08:00:00 clear sky 10.120 10.120 10.120 82 1.27 m/h 0 %
11:00:00 clear sky 22.972 22.972 22.972 37 2.01 m/h 0 %
14:00:00 scattered clouds 27.023 27.023 27.023 26 1.62 m/h 0 %
17:00:00 few clouds 27.787 27.787 27.787 21 6.56 m/h 0 %
20:00:00 clear sky 21.973 21.973 21.973 22 3.56 m/h 0 %
23:00:00 clear sky 18.617 18.617 18.617 38 7.16 m/h 0 %
26-Feb-2019 (Tue)
02:00:00 clear sky 15.676 15.676 15.676 44 6.01 m/h 0 %
05:00:00 clear sky 14.047 14.047 14.047 40 5.66 m/h 0 %
08:00:00 clear sky 12.932 12.932 12.932 36 3.52 m/h 0 %
11:00:00 clear sky 22.417 22.417 22.417 22 4.82 m/h 0 %
14:00:00 clear sky 26.371 26.371 26.371 21 3.51 m/h 0 %
17:00:00 clear sky 26.389 26.389 26.389 17 0.41 m/h 0 %
20:00:00 clear sky 17.761 17.761 17.761 25 1.32 m/h 0 %
23:00:00 clear sky 12.848 12.848 12.848 51 1.62 m/h 0 %
27-Feb-2019 (Wed)
02:00:00 clear sky 9.406 9.406 9.406 59 1.21 m/h 0 %
05:00:00 clear sky 8.044 8.044 8.044 59 1.25 m/h 0 %
08:00:00 clear sky 8.665 8.665 8.665 50 1.67 m/h 0 %
11:00:00 clear sky 22.595 22.595 22.595 29 1.96 m/h 0 %
14:00:00 clear sky 26.386 26.386 26.386 30 4.5 m/h 0 %
17:00:00 few clouds 25.373 25.373 25.373 27 6.26 m/h 0 %
20:00:00 clear sky 21.342 21.342 21.342 44 5.12 m/h 0 %
23:00:00 clear sky 16.816 16.816 16.816 74 2.12 m/h 0 %
28-Feb-2019 (Thu)
02:00:00 clear sky 13.491 13.491 13.491 88 1.26 m/h 0 %
05:00:00 scattered clouds 13.063 13.063 13.063 85 2.01 m/h 0 %
08:00:00 light rain 17.265 17.265 17.265 91 2.66 m/h 12 %
11:00:00 light rain 21.372 21.372 21.372 77 2.21 m/h 55 %
14:00:00 light rain 21.704 21.704 21.704 74 2.52 m/h 289 %

Famous Cities (60)